Time;durP1;ratioP1;P1;durP2;ratioP2;P2;SDS_P1;SDS_P2;PMS_P1;PMS_P2;Temp;Humidity;BMP_temperature;BMP_pressure;BME280_temperature;BME280_humidity;BME280_pressure;Samples;Min_cycle;Max_cycle;Signal;HPM_P1;HPM_P2
2022/07/12 00:00:34;;;;;;;1.65;0.98;;;;;;;;;;4968092;28;20502;-61
2022/07/12 00:02:59;;;;;;;3.40;1.20;;;;;;;;;;4969178;28;20328;-62
2022/07/12 00:05:24;;;;;;;4.65;1.40;;;;;;;;;;4969283;28;20391;-63
2022/07/12 00:07:50;;;;;;;2.70;1.30;;;;;;;;;;4969293;28;20433;-61
2022/07/12 00:10:15;;;;;;;1.52;1.00;;;;;;;;;;4969372;28;20455;-62
2022/07/12 00:12:41;;;;;;;2.92;1.02;;;;;;;;;;4969688;28;20376;-61
2022/07/12 00:15:07;;;;;;;2.97;1.10;;;;;;;;;;4970711;28;20452;-61
2022/07/12 00:17:32;;;;;;;1.60;1.08;;;;;;;;;;4968859;28;20029;-61
2022/07/12 00:19:58;;;;;;;2.00;1.23;;;;;;;;;;4970015;28;20025;-62
2022/07/12 00:22:24;;;;;;;1.38;1.10;;;;;;;;;;4968823;28;20447;-61
2022/07/12 00:24:49;;;;;;;1.30;1.00;;;;;;;;;;4969408;28;20332;-61
2022/07/12 00:27:15;;;;;;;1.70;1.00;;;;;;;;;;4969932;28;20077;-62
2022/07/12 00:29:40;;;;;;;1.40;0.98;;;;;;;;;;4968476;28;20480;-62
2022/07/12 00:32:07;;;;;;;2.22;0.80;;;;;;;;;;4968935;28;20433;-62
2022/07/12 00:34:33;;;;;;;1.40;0.90;;;;;;;;;;4970629;28;20092;-62
2022/07/12 00:36:58;;;;;;;2.13;1.30;;;;;;;;;;4973091;28;20092;-61
2022/07/12 00:39:23;;;;;;;1.70;0.98;;;;;;;;;;4973455;28;20405;-62
2022/07/12 00:41:49;;;;;;;2.65;1.50;;;;;;;;;;4972412;28;20026;-63
2022/07/12 00:44:15;;;;;;;1.90;1.20;;;;;;;;;;4973338;28;20379;-61
2022/07/12 00:46:40;;;;;;;4.15;1.00;;;;;;;;;;4972857;28;20037;-61
2022/07/12 00:49:05;;;;;;;3.15;1.45;;;;;;;;;;4972861;28;20468;-62
2022/07/12 00:51:31;;;;;;;1.67;0.90;;;;;;;;;;4972961;28;20421;-62
2022/07/12 00:53:58;;;;;;;1.90;1.42;;;;;;;;;;4973683;28;20506;-61
2022/07/12 00:56:23;;;;;;;0.82;0.70;;;;;;;;;;4972741;28;20391;-61
2022/07/12 00:58:49;;;;;;;2.15;1.33;;;;;;;;;;4973197;28;20060;-63
2022/07/12 01:01:14;;;;;;;2.13;1.00;;;;;;;;;;4975374;28;20037;-61
2022/07/12 01:03:40;;;;;;;3.88;1.02;;;;;;;;;;4980635;28;20395;-62
2022/07/12 01:06:07;;;;;;;1.95;1.25;;;;;;;;;;4955854;28;20424;-61
2022/07/12 01:08:33;;;;;;;1.63;1.20;;;;;;;;;;4972685;28;20025;-62
2022/07/12 01:10:58;;;;;;;2.75;1.02;;;;;;;;;;4972610;28;20417;-61
2022/07/12 01:13:24;;;;;;;2.10;1.10;;;;;;;;;;4973014;28;20029;-62
2022/07/12 01:15:49;;;;;;;1.80;0.98;;;;;;;;;;4973984;28;20453;-64
2022/07/12 01:18:15;;;;;;;1.45;0.93;;;;;;;;;;4972240;28;20328;-61
2022/07/12 01:20:41;;;;;;;2.50;1.20;;;;;;;;;;4954770;28;20431;-61
2022/07/12 01:23:08;;;;;;;1.27;0.85;;;;;;;;;;4955248;28;20355;-62
2022/07/12 01:25:33;;;;;;;1.45;1.10;;;;;;;;;;4954157;28;20425;-61
2022/07/12 01:27:59;;;;;;;1.17;0.98;;;;;;;;;;4972419;28;20390;-62
2022/07/12 01:30:24;;;;;;;1.63;1.00;;;;;;;;;;4971197;28;20472;-62
2022/07/12 01:32:50;;;;;;;1.65;0.93;;;;;;;;;;4972364;28;20424;-62
2022/07/12 01:35:15;;;;;;;1.83;1.23;;;;;;;;;;4953943;28;20444;-62
2022/07/12 01:37:42;;;;;;;1.55;1.13;;;;;;;;;;4971930;28;20372;-63
2022/07/12 01:40:12;;;;;;;1.63;0.90;;;;;;;;;;4971812;28;20332;-62
2022/07/12 01:42:38;;;;;;;2.40;1.30;;;;;;;;;;4972782;28;20350;-61
2022/07/12 01:45:06;;;;;;;1.33;1.08;;;;;;;;;;4972143;28;20545;-62
2022/07/12 01:47:32;;;;;;;1.75;0.90;;;;;;;;;;4971205;28;20546;-61
2022/07/12 01:49:58;;;;;;;2.17;1.23;;;;;;;;;;4971604;28;20491;-61
2022/07/12 01:52:24;;;;;;;1.60;1.00;;;;;;;;;;4972183;28;20510;-64
2022/07/12 01:54:50;;;;;;;1.45;0.95;;;;;;;;;;4971118;28;20405;-61
2022/07/12 01:57:15;;;;;;;1.52;1.00;;;;;;;;;;4972564;28;20350;-62
2022/07/12 01:59:41;;;;;;;1.13;0.98;;;;;;;;;;4972461;28;20124;-61
2022/07/12 02:02:07;;;;;;;2.33;0.90;;;;;;;;;;4971713;28;20432;-62
2022/07/12 02:04:33;;;;;;;3.40;1.10;;;;;;;;;;4971908;28;20471;-62
2022/07/12 02:06:58;;;;;;;1.23;0.80;;;;;;;;;;4971188;28;20033;-62
2022/07/12 02:09:24;;;;;;;1.63;1.02;;;;;;;;;;4972076;28;20048;-62
2022/07/12 02:11:49;;;;;;;1.08;0.88;;;;;;;;;;4972494;28;20520;-62
2022/07/12 02:14:16;;;;;;;2.58;0.90;;;;;;;;;;4971242;28;20431;-62
2022/07/12 02:16:42;;;;;;;1.45;1.05;;;;;;;;;;4971942;28;20367;-62
2022/07/12 02:19:08;;;;;;;1.38;1.00;;;;;;;;;;4971311;28;20432;-62
2022/07/12 02:21:34;;;;;;;3.80;1.33;;;;;;;;;;4970845;28;20421;-62
2022/07/12 02:24:00;;;;;;;1.90;1.10;;;;;;;;;;4971655;28;20510;-62
2022/07/12 02:26:25;;;;;;;3.20;1.13;;;;;;;;;;4971969;28;20336;-61
2022/07/12 02:28:51;;;;;;;2.35;1.10;;;;;;;;;;4952861;28;20363;-61
2022/07/12 02:31:16;;;;;;;1.40;0.90;;;;;;;;;;4972821;28;20337;-61
2022/07/12 02:33:42;;;;;;;1.33;0.90;;;;;;;;;;4971032;28;20048;-62
2022/07/12 02:36:08;;;;;;;1.70;1.20;;;;;;;;;;4971042;28;20356;-62
2022/07/12 02:38:33;;;;;;;0.80;0.77;;;;;;;;;;4970797;28;20399;-61
2022/07/12 02:40:59;;;;;;;1.05;0.77;;;;;;;;;;4971025;28;20429;-61
2022/07/12 02:43:26;;;;;;;0.85;0.73;;;;;;;;;;4970944;28;20495;-61
2022/07/12 02:45:53;;;;;;;1.17;0.88;;;;;;;;;;4970921;28;20361;-61
2022/07/12 02:48:19;;;;;;;1.35;0.95;;;;;;;;;;4970570;28;20419;-62
2022/07/12 02:50:44;;;;;;;0.90;0.73;;;;;;;;;;4970344;28;20353;-62
2022/07/12 02:53:10;;;;;;;1.45;1.10;;;;;;;;;;4972367;28;20466;-61
2022/07/12 02:55:36;;;;;;;1.95;1.13;;;;;;;;;;4970397;28;20326;-61
2022/07/12 02:58:02;;;;;;;0.82;0.70;;;;;;;;;;4970281;28;20033;-62
2022/07/12 03:00:28;;;;;;;1.17;0.85;;;;;;;;;;4971171;28;20033;-62
2022/07/12 03:02:54;;;;;;;0.82;0.68;;;;;;;;;;4971415;28;20022;-62
2022/07/12 03:05:19;;;;;;;1.33;0.90;;;;;;;;;;4970443;28;20033;-61
2022/07/12 03:07:45;;;;;;;1.35;0.77;;;;;;;;;;4970170;28;20356;-62
2022/07/12 03:10:10;;;;;;;1.10;0.80;;;;;;;;;;4970411;28;20501;-61
2022/07/12 03:12:36;;;;;;;2.28;0.90;;;;;;;;;;4970217;28;20379;-62
2022/07/12 03:15:02;;;;;;;1.25;0.80;;;;;;;;;;4970040;28;20475;-62
2022/07/12 03:17:27;;;;;;;1.00;0.75;;;;;;;;;;4970113;28;20444;-63
2022/07/12 03:19:53;;;;;;;1.63;0.80;;;;;;;;;;4970261;28;20416;-62
2022/07/12 03:22:18;;;;;;;1.67;1.02;;;;;;;;;;4970482;28;20380;-62
2022/07/12 03:24:43;;;;;;;1.30;0.82;;;;;;;;;;4969888;28;20340;-61
2022/07/12 03:27:09;;;;;;;1.25;0.70;;;;;;;;;;4952136;28;20503;-61
2022/07/12 03:29:35;;;;;;;1.45;0.80;;;;;;;;;;4969680;28;20443;-61
2022/07/12 03:32:01;;;;;;;1.58;0.82;;;;;;;;;;4969322;28;20336;-61
2022/07/12 03:34:26;;;;;;;0.90;0.70;;;;;;;;;;4971094;28;20341;-61
2022/07/12 03:36:52;;;;;;;1.88;0.90;;;;;;;;;;4969629;28;20112;-62
2022/07/12 03:39:18;;;;;;;1.77;0.70;;;;;;;;;;4971606;28;20482;-62
2022/07/12 03:41:43;;;;;;;1.02;0.80;;;;;;;;;;4969988;28;20515;-62
2022/07/12 03:44:09;;;;;;;1.55;0.85;;;;;;;;;;4969523;28;20387;-61
2022/07/12 03:46:34;;;;;;;1.23;0.73;;;;;;;;;;4971400;28;20064;-61
2022/07/12 03:48:59;;;;;;;1.73;0.70;;;;;;;;;;4969596;28;20372;-64
2022/07/12 03:51:26;;;;;;;1.85;1.13;;;;;;;;;;4971024;28;20314;-62
2022/07/12 03:53:51;;;;;;;1.15;0.75;;;;;;;;;;4969396;28;20341;-62
2022/07/12 03:59:02;;;;;;;1.15;0.68;;;;;;;;;;4969939;28;20470;-62
2022/07/12 04:01:28;;;;;;;2.03;0.88;;;;;;;;;;4969485;28;20034;-62
2022/07/12 04:03:55;;;;;;;3.45;0.80;;;;;;;;;;4969692;28;20025;-62
2022/07/12 04:06:20;;;;;;;1.90;0.77;;;;;;;;;;4969255;28;20440;-61
2022/07/12 04:08:45;;;;;;;1.08;0.85;;;;;;;;;;4969260;28;20498;-62
2022/07/12 04:11:11;;;;;;;2.70;1.17;;;;;;;;;;4969286;28;20355;-61
2022/07/12 04:13:37;;;;;;;1.42;0.82;;;;;;;;;;4971060;28;20367;-61
2022/07/12 04:16:03;;;;;;;1.27;0.73;;;;;;;;;;4968990;28;20376;-61
2022/07/12 04:18:29;;;;;;;1.00;0.70;;;;;;;;;;4970003;28;20425;-62
2022/07/12 04:20:54;;;;;;;3.15;0.82;;;;;;;;;;4969558;28;20314;-62
2022/07/12 04:23:20;;;;;;;0.93;0.60;;;;;;;;;;4970192;28;20391;-61
2022/07/12 04:25:45;;;;;;;1.33;0.90;;;;;;;;;;4969979;28;20448;-61
2022/07/12 04:28:10;;;;;;;1.02;0.75;;;;;;;;;;4968762;28;20052;-62
2022/07/12 04:30:36;;;;;;;0.98;0.60;;;;;;;;;;4968931;28;20102;-61
2022/07/12 04:33:01;;;;;;;2.47;1.45;;;;;;;;;;4969458;28;20424;-62
2022/07/12 04:35:26;;;;;;;0.75;0.68;;;;;;;;;;4969917;28;20440;-61
2022/07/12 04:37:52;;;;;;;0.98;0.70;;;;;;;;;;4968882;28;20056;-62
2022/07/12 04:40:17;;;;;;;1.48;0.80;;;;;;;;;;4969469;28;20384;-61
2022/07/12 04:42:43;;;;;;;1.70;0.88;;;;;;;;;;4969195;28;20399;-63
2022/07/12 04:45:08;;;;;;;1.08;0.60;;;;;;;;;;4968964;28;20397;-62
2022/07/12 04:47:37;;;;;;;0.73;0.50;;;;;;;;;;4969562;28;20060;-63
2022/07/12 04:50:06;;;;;;;0.98;0.70;;;;;;;;;;4951139;28;20411;-65
2022/07/12 04:52:32;;;;;;;2.35;0.60;;;;;;;;;;4969282;28;20044;-62
2022/07/12 04:54:58;;;;;;;0.75;0.50;;;;;;;;;;4969800;28;20408;-61
2022/07/12 04:57:23;;;;;;;1.02;0.77;;;;;;;;;;4968501;28;20451;-61
2022/07/12 04:59:48;;;;;;;0.80;0.60;;;;;;;;;;4968860;28;20471;-62
2022/07/12 05:02:14;;;;;;;1.60;0.77;;;;;;;;;;4968470;28;20510;-61
2022/07/12 05:04:39;;;;;;;0.60;0.47;;;;;;;;;;4968886;28;20352;-61
2022/07/12 05:07:04;;;;;;;0.77;0.50;;;;;;;;;;4968790;28;20391;-61
2022/07/12 05:09:30;;;;;;;1.15;0.60;;;;;;;;;;4968974;28;20399;-61
2022/07/12 05:11:55;;;;;;;1.92;0.63;;;;;;;;;;4968830;28;20045;-61
2022/07/12 05:14:21;;;;;;;0.55;0.50;;;;;;;;;;4968789;28;20403;-61
2022/07/12 05:16:46;;;;;;;2.35;0.60;;;;;;;;;;4968931;28;20332;-61
2022/07/12 05:19:11;;;;;;;0.90;0.55;;;;;;;;;;4968558;28;20478;-61
2022/07/12 05:21:37;;;;;;;1.08;0.60;;;;;;;;;;4970599;28;20352;-60
2022/07/12 05:24:03;;;;;;;1.00;0.60;;;;;;;;;;4972331;28;20388;-62
2022/07/12 05:26:29;;;;;;;0.65;0.50;;;;;;;;;;4973354;28;20348;-62
2022/07/12 05:28:55;;;;;;;1.00;0.65;;;;;;;;;;4972625;28;20397;-61
2022/07/12 05:31:20;;;;;;;0.77;0.40;;;;;;;;;;4972488;28;20033;-60
2022/07/12 05:33:46;;;;;;;0.82;0.40;;;;;;;;;;4971848;28;20387;-62
2022/07/12 05:36:11;;;;;;;0.80;0.47;;;;;;;;;;4972068;28;20107;-62
2022/07/12 05:38:36;;;;;;;0.55;0.47;;;;;;;;;;4972170;28;20356;-62
2022/07/12 05:41:02;;;;;;;1.42;0.60;;;;;;;;;;4972137;28;20413;-62
2022/07/12 05:43:27;;;;;;;2.78;0.50;;;;;;;;;;4971695;28;20483;-63
2022/07/12 05:45:53;;;;;;;0.63;0.50;;;;;;;;;;4971513;28;20324;-61
2022/07/12 05:48:18;;;;;;;0.70;0.57;;;;;;;;;;4973389;28;20461;-61
2022/07/12 05:50:44;;;;;;;0.85;0.60;;;;;;;;;;4971947;28;20343;-61
2022/07/12 05:53:22;;;;;;;1.48;0.60;;;;;;;;;;4971871;28;20092;-62
2022/07/12 05:55:51;;;;;;;1.08;0.40;;;;;;;;;;4971788;28;20444;-61
2022/07/12 05:58:17;;;;;;;1.15;0.50;;;;;;;;;;4971321;28;20344;-61
2022/07/12 06:00:43;;;;;;;3.40;0.40;;;;;;;;;;4971323;28;20441;-63
2022/07/12 06:03:08;;;;;;;0.65;0.40;;;;;;;;;;4970888;28;20456;-60
2022/07/12 06:05:39;;;;;;;1.77;0.93;;;;;;;;;;4812243;28;10004103;-65
2022/07/12 06:08:05;;;;;;;1.15;0.65;;;;;;;;;;4970222;28;20573;-61
2022/07/12 06:10:31;;;;;;;1.58;0.60;;;;;;;;;;4971999;28;20563;-62
2022/07/12 06:12:57;;;;;;;1.13;0.70;;;;;;;;;;4971820;28;20440;-61
2022/07/12 06:15:24;;;;;;;1.58;0.82;;;;;;;;;;4972110;28;20026;-61
2022/07/12 06:17:49;;;;;;;1.10;0.70;;;;;;;;;;4971343;28;20121;-61
2022/07/12 06:20:15;;;;;;;2.50;0.75;;;;;;;;;;4970967;28;20029;-61
2022/07/12 06:22:40;;;;;;;1.50;0.80;;;;;;;;;;4971189;28;20483;-62
2022/07/12 06:25:06;;;;;;;0.88;0.60;;;;;;;;;;4971248;28;20379;-61
2022/07/12 06:27:32;;;;;;;3.25;0.88;;;;;;;;;;4970584;28;20575;-60
2022/07/12 06:29:57;;;;;;;1.15;0.40;;;;;;;;;;4970839;28;20456;-61
2022/07/12 06:32:22;;;;;;;1.52;0.47;;;;;;;;;;4969653;28;20057;-60
2022/07/12 06:34:48;;;;;;;2.25;0.98;;;;;;;;;;4972263;28;20352;-60
2022/07/12 06:37:14;;;;;;;2.33;0.82;;;;;;;;;;4970680;28;20397;-62
2022/07/12 06:39:40;;;;;;;1.10;0.63;;;;;;;;;;4970684;28;20617;-62
2022/07/12 06:42:06;;;;;;;4.05;0.93;;;;;;;;;;4971039;28;20104;-61
2022/07/12 06:44:31;;;;;;;2.35;1.05;;;;;;;;;;4970622;28;20107;-62
2022/07/12 06:46:58;;;;;;;1.10;0.73;;;;;;;;;;4970713;28;20534;-60
2022/07/12 06:49:23;;;;;;;1.80;0.88;;;;;;;;;;4970351;28;20420;-61
2022/07/12 06:51:49;;;;;;;1.17;0.65;;;;;;;;;;4970482;28;20359;-61
2022/07/12 06:54:14;;;;;;;1.50;0.85;;;;;;;;;;4970793;28;20321;-62
2022/07/12 06:56:39;;;;;;;1.38;0.60;;;;;;;;;;4971160;28;20463;-61
2022/07/12 06:59:05;;;;;;;2.75;1.00;;;;;;;;;;4971864;28;20316;-61
2022/07/12 07:01:30;;;;;;;3.55;0.68;;;;;;;;;;4970145;28;20495;-61
2022/07/12 07:03:55;;;;;;;2.03;0.70;;;;;;;;;;4970216;28;20321;-61
2022/07/12 07:06:21;;;;;;;1.17;0.80;;;;;;;;;;4970176;28;20494;-63
2022/07/12 07:08:46;;;;;;;1.92;0.70;;;;;;;;;;4970613;28;20475;-60
2022/07/12 07:11:12;;;;;;;2.75;0.90;;;;;;;;;;4970457;28;20379;-61
2022/07/12 07:13:37;;;;;;;1.27;0.85;;;;;;;;;;4970329;28;20478;-62
2022/07/12 07:16:03;;;;;;;4.97;0.60;;;;;;;;;;4970639;28;20099;-61
2022/07/12 07:18:28;;;;;;;0.90;0.80;;;;;;;;;;4970194;28;20029;-60
2022/07/12 07:20:53;;;;;;;1.15;0.60;;;;;;;;;;4970277;28;20523;-61
2022/07/12 07:23:19;;;;;;;1.35;0.88;;;;;;;;;;4969904;28;20411;-60
2022/07/12 07:25:45;;;;;;;1.70;0.85;;;;;;;;;;4969826;28;20441;-61
2022/07/12 07:28:11;;;;;;;1.42;0.88;;;;;;;;;;4969970;28;20538;-62
2022/07/12 07:30:52;;;;;;;0.93;0.80;;;;;;;;;;4970901;28;20570;-61
2022/07/12 07:33:24;;;;;;;3.00;0.65;;;;;;;;;;4970105;28;20060;-61
2022/07/12 07:35:49;;;;;;;0.60;0.40;;;;;;;;;;4969781;28;20419;-62
2022/07/12 07:38:16;;;;;;;1.23;0.55;;;;;;;;;;4970252;28;20455;-61
2022/07/12 07:40:41;;;;;;;1.35;0.47;;;;;;;;;;4969628;28;20440;-61
2022/07/12 07:43:07;;;;;;;1.73;0.50;;;;;;;;;;4969729;28;20418;-60
2022/07/12 07:45:32;;;;;;;1.23;0.80;;;;;;;;;;4969899;28;20380;-61
2022/07/12 07:47:58;;;;;;;0.73;0.57;;;;;;;;;;4970191;28;20424;-62
2022/07/12 07:50:23;;;;;;;3.10;1.13;;;;;;;;;;4969946;28;20472;-60
2022/07/12 07:52:49;;;;;;;1.52;0.98;;;;;;;;;;4969610;28;20340;-61
2022/07/12 07:55:15;;;;;;;0.98;0.70;;;;;;;;;;4970100;28;20332;-61
2022/07/12 07:57:41;;;;;;;1.33;0.52;;;;;;;;;;4969499;28;20119;-61
2022/07/12 08:00:07;;;;;;;2.38;0.70;;;;;;;;;;4969054;28;20029;-60
2022/07/12 08:02:32;;;;;;;1.63;0.80;;;;;;;;;;4969464;28;20480;-60
2022/07/12 08:04:57;;;;;;;1.98;0.90;;;;;;;;;;4969220;28;20083;-61
2022/07/12 08:07:23;;;;;;;0.70;0.63;;;;;;;;;;4969161;28;20512;-60
2022/07/12 08:09:48;;;;;;;0.98;0.68;;;;;;;;;;4969040;28;20037;-60
2022/07/12 08:12:14;;;;;;;0.90;0.60;;;;;;;;;;4969417;28;20324;-60
2022/07/12 08:14:39;;;;;;;1.08;0.55;;;;;;;;;;4969046;28;20389;-60
2022/07/12 08:17:04;;;;;;;0.95;0.70;;;;;;;;;;4969272;28;20432;-61
2022/07/12 08:19:30;;;;;;;0.82;0.60;;;;;;;;;;4968970;28;20467;-62
2022/07/12 08:21:56;;;;;;;0.95;0.50;;;;;;;;;;4970371;28;20455;-60
2022/07/12 08:24:21;;;;;;;1.63;0.88;;;;;;;;;;4969136;28;20352;-60
2022/07/12 08:26:46;;;;;;;0.80;0.52;;;;;;;;;;4969325;28;20025;-61
2022/07/12 08:29:12;;;;;;;0.88;0.50;;;;;;;;;;4969574;28;20108;-61
2022/07/12 08:31:37;;;;;;;3.10;0.60;;;;;;;;;;4968726;28;20443;-60
2022/07/12 08:34:03;;;;;;;2.78;0.60;;;;;;;;;;4969255;28;20325;-61
2022/07/12 08:36:28;;;;;;;1.45;0.68;;;;;;;;;;4968917;28;20449;-61
2022/07/12 08:38:53;;;;;;;1.05;0.50;;;;;;;;;;4969383;28;20396;-62
2022/07/12 08:41:19;;;;;;;1.70;0.57;;;;;;;;;;4969860;28;20371;-62
2022/07/12 08:43:44;;;;;;;2.90;0.80;;;;;;;;;;4969195;28;20490;-62
2022/07/12 08:46:11;;;;;;;0.55;0.40;;;;;;;;;;4969126;28;20052;-63
2022/07/12 08:48:38;;;;;;;0.65;0.35;;;;;;;;;;4968822;28;20449;-62
2022/07/12 08:51:14;;;;;;;0.70;0.57;;;;;;;;;;4969364;28;20413;-61
2022/07/12 08:53:40;;;;;;;2.05;0.40;;;;;;;;;;4950926;28;20448;-62
2022/07/12 08:56:07;;;;;;;1.42;0.63;;;;;;;;;;4969840;28;20104;-62
2022/07/12 08:58:32;;;;;;;0.60;0.38;;;;;;;;;;4972647;28;20395;-61
2022/07/12 09:00:58;;;;;;;0.57;0.57;;;;;;;;;;4972355;28;20382;-62
2022/07/12 09:03:23;;;;;;;0.30;0.30;;;;;;;;;;4972168;28;20346;-62
2022/07/12 09:05:51;;;;;;;1.15;0.68;;;;;;;;;;4972382;28;20355;-61
2022/07/12 09:08:17;;;;;;;0.70;0.40;;;;;;;;;;4972507;28;20395;-62
2022/07/12 09:10:57;;;;;;;0.70;0.63;;;;;;;;;;4972112;28;20340;-62
2022/07/12 09:13:55;;;;;;;0.70;0.50;;;;;;;;;;4973121;28;20486;-61
2022/07/12 09:16:23;;;;;;;2.20;0.52;;;;;;;;;;4972589;28;20344;-61
2022/07/12 09:18:49;;;;;;;0.55;0.50;;;;;;;;;;4973056;28;20432;-61
2022/07/12 09:21:48;;;;;;;0.43;0.30;;;;;;;;;;4972965;28;20317;-62
2022/07/12 09:24:14;;;;;;;5.22;0.60;;;;;;;;;;4972305;28;20451;-62
2022/07/12 09:26:40;;;;;;;2.17;0.73;;;;;;;;;;4972249;28;20428;-61
2022/07/12 09:29:06;;;;;;;0.95;0.50;;;;;;;;;;4971672;28;20360;-61
2022/07/12 09:36:06;;;;;;;0.93;0.47;;;;;;;;;;4972636;28;20463;-61
2022/07/12 09:37:16;;;;;;;2.10;0.47;;;;;;;;;;4972980;28;20383;-60
2022/07/12 09:39:42;;;;;;;0.88;0.57;;;;;;;;;;4973199;28;20410;-61
2022/07/12 09:42:10;;;;;;;1.80;0.50;;;;;;;;;;4971178;28;20435;-61
2022/07/12 09:44:35;;;;;;;4.53;1.25;;;;;;;;;;4971892;28;20022;-60
2022/07/12 09:47:01;;;;;;;0.60;0.50;;;;;;;;;;4954239;28;20119;-61
2022/07/12 09:49:28;;;;;;;1.83;0.68;;;;;;;;;;4971758;28;20352;-60
2022/07/12 09:51:57;;;;;;;0.68;0.38;;;;;;;;;;4972914;28;20345;-64
2022/07/12 09:54:26;;;;;;;;;;;;;;;;;;4954227;28;20455;-62
2022/07/12 09:56:53;;;;;;;0.98;0.40;;;;;;;;;;4971469;28;19913;-60
2022/07/12 09:59:22;;;;;;;0.40;0.30;;;;;;;;;;4953907;28;20416;-61
2022/07/12 10:01:48;;;;;;;3.15;0.70;;;;;;;;;;4973430;28;20503;-61
2022/07/12 10:04:15;;;;;;;0.75;0.40;;;;;;;;;;4971516;28;20428;-60
2022/07/12 10:06:40;;;;;;;2.92;0.45;;;;;;;;;;4953256;28;20375;-60
2022/07/12 10:09:06;;;;;;;0.55;0.40;;;;;;;;;;4971203;28;20372;-61
2022/07/12 10:11:32;;;;;;;0.85;0.50;;;;;;;;;;4972481;28;20088;-61
2022/07/12 10:13:57;;;;;;;2.70;0.55;;;;;;;;;;4953949;28;20490;-61
2022/07/12 10:16:26;;;;;;;0.73;0.50;;;;;;;;;;4953995;28;20423;-61
2022/07/12 10:19:23;;;;;;;1.67;0.47;;;;;;;;;;4971440;28;20454;-62
2022/07/12 10:21:50;;;;;;;0.73;0.40;;;;;;;;;;4971290;28;20428;-62
2022/07/12 10:24:30;;;;;;;1.17;0.60;;;;;;;;;;4972702;28;20424;-60
2022/07/12 10:26:58;;;;;;;0.75;0.57;;;;;;;;;;4972001;28;20140;-60
2022/07/12 10:29:24;;;;;;;1.00;0.40;;;;;;;;;;4970988;28;20444;-61
2022/07/12 10:31:50;;;;;;;0.82;0.60;;;;;;;;;;4971052;28;20503;-61
2022/07/12 10:34:27;;;;;;;0.80;0.50;;;;;;;;;;4970972;28;20464;-61
2022/07/12 10:36:56;;;;;;;0.40;0.40;;;;;;;;;;4970986;28;20368;-61
2022/07/12 10:39:22;;;;;;;1.55;0.43;;;;;;;;;;4971031;28;20429;-62
2022/07/12 10:42:17;;;;;;;0.40;0.30;;;;;;;;;;4970686;28;20440;-60
2022/07/12 10:44:47;;;;;;;1.10;0.50;;;;;;;;;;4959194;28;20400;-61
2022/07/12 10:47:15;;;;;;;0.88;0.30;;;;;;;;;;4970925;28;20336;-61
2022/07/12 10:49:53;;;;;;;0.73;0.47;;;;;;;;;;4970741;28;20449;-61
2022/07/12 10:52:24;;;;;;;0.32;0.30;;;;;;;;;;4970347;28;20029;-61
2022/07/12 10:54:50;;;;;;;2.85;0.60;;;;;;;;;;4970016;28;20429;-61
2022/07/12 10:57:16;;;;;;;0.55;0.55;;;;;;;;;;4970757;28;20421;-61
2022/07/12 10:59:45;;;;;;;0.65;0.38;;;;;;;;;;4970450;28;20030;-61
2022/07/12 11:02:11;;;;;;;0.63;0.47;;;;;;;;;;4970177;28;20055;-63
2022/07/12 11:04:46;;;;;;;0.47;0.40;;;;;;;;;;4970154;28;20038;-61
2022/07/12 11:07:16;;;;;;;0.47;0.30;;;;;;;;;;4970000;28;20452;-61
2022/07/12 11:09:42;;;;;;;0.70;0.50;;;;;;;;;;4971350;28;20029;-61
2022/07/12 11:12:08;;;;;;;0.43;0.20;;;;;;;;;;4970139;28;20485;-61
2022/07/12 11:14:35;;;;;;;0.43;0.25;;;;;;;;;;4970275;28;20099;-61
2022/07/12 11:17:00;;;;;;;0.80;0.55;;;;;;;;;;4970183;28;20421;-62
2022/07/12 11:19:28;;;;;;;1.63;0.40;;;;;;;;;;4969703;28;20410;-61
2022/07/12 11:21:58;;;;;;;0.73;0.32;;;;;;;;;;4971079;28;20443;-61
2022/07/12 11:24:31;;;;;;;0.68;0.30;;;;;;;;;;4970292;28;20440;-61
2022/07/12 11:26:57;;;;;;;1.13;0.50;;;;;;;;;;4970427;28;20559;-61
2022/07/12 11:29:23;;;;;;;2.10;0.40;;;;;;;;;;4970114;28;20475;-62
2022/07/12 11:31:48;;;;;;;1.00;0.35;;;;;;;;;;4970222;28;20452;-61
2022/07/12 11:34:23;;;;;;;0.63;0.55;;;;;;;;;;4969748;28;20364;-61
2022/07/12 11:36:56;;;;;;;0.30;0.30;;;;;;;;;;4969479;28;20380;-61
2022/07/12 11:39:38;;;;;;;0.75;0.40;;;;;;;;;;4969982;28;20420;-61
2022/07/12 11:42:04;;;;;;;1.05;0.20;;;;;;;;;;4969617;28;20436;-61
2022/07/12 11:44:42;;;;;;;1.73;0.60;;;;;;;;;;4969910;28;20419;-62
2022/07/12 11:47:08;;;;;;;0.20;0.10;;;;;;;;;;4969294;28;20437;-61
2022/07/12 11:49:33;;;;;;;1.40;0.30;;;;;;;;;;4970845;28;20317;-60
2022/07/12 11:51:58;;;;;;;1.05;0.35;;;;;;;;;;4969847;28;20370;-62
2022/07/12 11:54:27;;;;;;;0.32;0.32;;;;;;;;;;4969678;28;20518;-61
2022/07/12 11:57:09;;;;;;;0.52;0.30;;;;;;;;;;4969794;28;20459;-61
2022/07/12 11:59:34;;;;;;;0.60;0.43;;;;;;;;;;4969358;28;20364;-61
2022/07/12 12:02:15;;;;;;;0.30;0.30;;;;;;;;;;4969471;28;20419;-61
2022/07/12 12:04:51;;;;;;;1.98;0.38;;;;;;;;;;4935813;28;20436;-61
2022/07/12 12:07:18;;;;;;;0.80;0.43;;;;;;;;;;4970848;28;20108;-61
2022/07/12 12:10:04;;;;;;;1.38;0.30;;;;;;;;;;4969364;28;20098;-61
2022/07/12 12:12:36;;;;;;;0.95;0.30;;;;;;;;;;4969228;28;20473;-61
2022/07/12 12:15:13;;;;;;;0.68;0.50;;;;;;;;;;4969901;28;20321;-61
2022/07/12 12:17:44;;;;;;;1.80;0.30;;;;;;;;;;4969335;28;20408;-62
2022/07/12 12:20:18;;;;;;;1.70;0.65;;;;;;;;;;4969089;28;20432;-61
2022/07/12 12:22:45;;;;;;;1.23;0.30;;;;;;;;;;4969230;28;20525;-60
2022/07/12 12:25:14;;;;;;;0.50;0.30;;;;;;;;;;4968856;28;20405;-62
2022/07/12 12:27:42;;;;;;;2.33;1.05;;;;;;;;;;4969003;28;20413;-61
2022/07/12 12:30:08;;;;;;;0.95;0.30;;;;;;;;;;4970032;28;20099;-63
2022/07/12 12:33:06;;;;;;;1.50;0.40;;;;;;;;;;4974025;28;20504;-62
2022/07/12 12:35:34;;;;;;;3.47;0.28;;;;;;;;;;4940214;28;20368;-62
2022/07/12 12:38:10;;;;;;;1.75;0.30;;;;;;;;;;4973561;28;20336;-64
2022/07/12 12:40:37;;;;;;;1.48;0.47;;;;;;;;;;4973198;28;20022;-61
2022/07/12 12:43:13;;;;;;;0.30;0.17;;;;;;;;;;4973137;28;20337;-61
2022/07/12 12:45:55;;;;;;;0.30;0.25;;;;;;;;;;4973225;28;20515;-61
2022/07/12 12:48:31;;;;;;;2.53;0.68;;;;;;;;;;4973095;28;20447;-61
2022/07/12 12:51:05;;;;;;;0.43;0.13;;;;;;;;;;4972789;28;20515;-62
2022/07/12 12:53:31;;;;;;;0.30;0.30;;;;;;;;;;4973179;28;20030;-61
2022/07/12 12:55:56;;;;;;;0.22;0.22;;;;;;;;;;4972974;28;20443;-61
2022/07/12 12:58:24;;;;;;;0.45;0.40;;;;;;;;;;4972459;28;20443;-60
2022/07/12 13:00:51;;;;;;;0.60;0.30;;;;;;;;;;4972872;28;20468;-61
2022/07/12 13:03:18;;;;;;;0.22;0.22;;;;;;;;;;4954926;28;20115;-61
2022/07/12 13:05:44;;;;;;;0.55;0.40;;;;;;;;;;4972597;28;20463;-61
2022/07/12 13:08:11;;;;;;;2.03;0.38;;;;;;;;;;4972612;28;20341;-61
2022/07/12 13:10:38;;;;;;;0.35;0.30;;;;;;;;;;4972371;28;20085;-61
2022/07/12 13:13:05;;;;;;;0.75;0.40;;;;;;;;;;4973127;28;20029;-61
2022/07/12 13:15:31;;;;;;;0.40;0.13;;;;;;;;;;4972693;28;20535;-60
2022/07/12 13:17:56;;;;;;;1.45;0.20;;;;;;;;;;4972363;28;20426;-61
2022/07/12 13:20:23;;;;;;;1.13;0.45;;;;;;;;;;4971981;28;20356;-61
2022/07/12 13:22:49;;;;;;;0.73;0.52;;;;;;;;;;4972038;28;20344;-61
2022/07/12 13:25:15;;;;;;;1.50;0.40;;;;;;;;;;4973356;28;20103;-61
2022/07/12 13:27:42;;;;;;;0.20;0.20;;;;;;;;;;4972253;28;20399;-61
2022/07/12 13:30:09;;;;;;;0.98;0.28;;;;;;;;;;4971886;28;20186;-61
2022/07/12 13:32:35;;;;;;;1.00;0.40;;;;;;;;;;4973126;28;20324;-61
2022/07/12 13:35:01;;;;;;;0.55;0.40;;;;;;;;;;4972137;28;20538;-60
2022/07/12 13:37:27;;;;;;;0.38;0.30;;;;;;;;;;4971715;28;20344;-60
2022/07/12 13:40:10;;;;;;;3.05;0.50;;;;;;;;;;4973455;28;20305;-61
2022/07/12 13:42:49;;;;;;;1.70;0.40;;;;;;;;;;4971225;28;20353;-62
2022/07/12 13:45:17;;;;;;;0.32;0.30;;;;;;;;;;4972359;28;20331;-60
2022/07/12 13:47:44;;;;;;;1.20;0.38;;;;;;;;;;4972261;28;20037;-61
2022/07/12 13:50:12;;;;;;;0.40;0.40;;;;;;;;;;4972507;28;20314;-61
2022/07/12 13:52:39;;;;;;;0.77;0.30;;;;;;;;;;4973550;28;20324;-61
2022/07/12 13:55:05;;;;;;;0.80;0.32;;;;;;;;;;4971972;28;20084;-63
2022/07/12 13:57:31;;;;;;;1.05;0.50;;;;;;;;;;4972115;28;20349;-61
2022/07/12 13:59:58;;;;;;;0.38;0.35;;;;;;;;;;4972346;28;20325;-60
2022/07/12 14:02:23;;;;;;;1.25;0.30;;;;;;;;;;4971130;28;20429;-61
2022/07/12 14:04:49;;;;;;;0.10;0.10;;;;;;;;;;4971196;28;20479;-61
2022/07/12 14:07:15;;;;;;;0.95;0.30;;;;;;;;;;4971682;28;20025;-59
2022/07/12 14:09:40;;;;;;;0.63;0.30;;;;;;;;;;4953666;28;20345;-61
2022/07/12 14:12:08;;;;;;;0.40;0.22;;;;;;;;;;4971209;28;20033;-61
2022/07/12 14:15:19;;;;;;;0.40;0.20;;;;;;;;;;4971413;28;20313;-60
2022/07/12 14:17:20;;;;;;;1.52;0.60;;;;;;;;;;4953982;28;20502;-61
2022/07/12 14:19:45;;;;;;;0.47;0.30;;;;;;;;;;4971372;28;20403;-61
2022/07/12 14:22:11;;;;;;;0.40;0.15;;;;;;;;;;4972869;28;20499;-61
2022/07/12 14:24:36;;;;;;;1.98;0.45;;;;;;;;;;4971471;28;20349;-60
2022/07/12 14:27:02;;;;;;;0.30;0.30;;;;;;;;;;4970719;28;20057;-61
2022/07/12 14:29:28;;;;;;;0.30;0.25;;;;;;;;;;4971398;28;20478;-61
2022/07/12 14:31:55;;;;;;;0.93;0.35;;;;;;;;;;4972107;28;20332;-60
2022/07/12 14:34:21;;;;;;;0.60;0.40;;;;;;;;;;4970870;28;20345;-60
2022/07/12 14:36:47;;;;;;;0.30;0.30;;;;;;;;;;4971008;28;20575;-60
2022/07/12 14:39:12;;;;;;;0.57;0.47;;;;;;;;;;4971494;28;20503;-60
2022/07/12 14:41:38;;;;;;;0.68;0.40;;;;;;;;;;4970473;28;20375;-61
2022/07/12 14:44:06;;;;;;;0.85;0.28;;;;;;;;;;4970763;28;20519;-61
2022/07/12 14:46:32;;;;;;;0.35;0.32;;;;;;;;;;4970675;28;20080;-63
2022/07/12 14:48:58;;;;;;;0.52;0.30;;;;;;;;;;4971376;28;20665;-61